Time;durP1;ratioP1;P1;durP2;ratioP2;P2;SDS_P1;SDS_P2;PMS_P1;PMS_P2;Temp;Humidity;BMP_temperature;BMP_pressure;BME280_temperature;BME280_humidity;BME280_pressure;Samples;Min_cycle;Max_cycle;Signal;HPM_P1;HPM_P2
2023/08/29 00:01:19;;;;;;;2.58;1.95;;;17.20;99.90;;;;;;5055822;28;20028;-67
2023/08/29 00:03:45;;;;;;;4.22;2.65;;;17.20;99.90;;;;;;5053876;28;20478;-67
2023/08/29 00:06:11;;;;;;;2.90;2.45;;;17.20;99.90;;;;;;5056014;28;20063;-67
2023/08/29 00:08:37;;;;;;;2.60;2.40;;;17.20;99.90;;;;;;5055316;28;20025;-67
2023/08/29 00:11:02;;;;;;;4.03;2.55;;;17.10;99.90;;;;;;5055797;28;20152;-68
2023/08/29 00:13:28;;;;;;;2.55;2.30;;;17.10;99.90;;;;;;5055499;28;20082;-68
2023/08/29 00:15:55;;;;;;;2.95;2.60;;;17.10;99.90;;;;;;5055856;28;20067;-67
2023/08/29 00:18:21;;;;;;;3.85;3.00;;;17.00;99.90;;;;;;5055667;28;20037;-68
2023/08/29 00:20:46;;;;;;;4.25;2.88;;;17.00;99.90;;;;;;5055280;28;20033;-67
2023/08/29 00:23:12;;;;;;;3.63;2.63;;;17.00;99.90;;;;;;5055747;28;20484;-67
2023/08/29 00:25:38;;;;;;;3.58;2.42;;;17.00;99.90;;;;;;5055245;28;20029;-67
2023/08/29 00:28:03;;;;;;;3.88;2.08;;;17.00;99.90;;;;;;5055656;28;20025;-67
2023/08/29 00:30:37;;;;;;;2.70;2.25;;;17.00;99.90;;;;;;5055181;28;20056;-68
2023/08/29 00:33:03;;;;;;;3.20;2.70;;;17.00;99.90;;;;;;5055718;28;20028;-67
2023/08/29 00:35:28;;;;;;;3.22;2.55;;;17.00;99.90;;;;;;5055097;28;20036;-67
2023/08/29 00:37:54;;;;;;;3.50;3.20;;;17.00;99.90;;;;;;5051875;28;20033;-67
2023/08/29 00:40:20;;;;;;;4.75;3.25;;;16.90;99.90;;;;;;5055107;28;20029;-67
2023/08/29 00:42:47;;;;;;;3.92;3.38;;;17.00;99.90;;;;;;5055196;28;20033;-67
2023/08/29 00:45:13;;;;;;;6.75;3.33;;;16.90;99.90;;;;;;5055287;28;20074;-67
2023/08/29 00:47:40;;;;;;;5.40;3.40;;;16.90;99.90;;;;;;5054844;28;20420;-67
2023/08/29 00:50:07;;;;;;;5.43;3.90;;;16.90;99.90;;;;;;5054902;28;20437;-67
2023/08/29 00:52:33;;;;;;;4.25;3.65;;;17.00;99.90;;;;;;5054528;28;20454;-68
2023/08/29 00:54:59;;;;;;;5.60;3.60;;;17.00;99.90;;;;;;5052159;28;20099;-67
2023/08/29 00:57:25;;;;;;;4.72;3.58;;;17.00;99.90;;;;;;5054436;28;20067;-67
2023/08/29 00:59:51;;;;;;;5.95;3.78;;;17.00;99.90;;;;;;5054926;28;20075;-67
2023/08/29 01:02:17;;;;;;;4.47;3.08;;;17.00;99.90;;;;;;5054264;28;20546;-67
2023/08/29 01:04:43;;;;;;;4.45;3.28;;;17.00;99.90;;;;;;5054545;28;20025;-67
2023/08/29 01:07:09;;;;;;;4.63;3.03;;;17.00;99.90;;;;;;5054583;28;20036;-67
2023/08/29 01:09:35;;;;;;;3.88;2.97;;;17.00;99.90;;;;;;5054394;28;20473;-68
2023/08/29 01:12:18;;;;;;;3.67;3.30;;;17.10;99.90;;;;;;5054686;28;20036;-67
2023/08/29 01:15:10;;;;;;;4.00;3.50;;;17.10;99.90;;;;;;5054280;28;20021;-67
2023/08/29 01:17:44;;;;;;;8.18;3.22;;;17.10;99.90;;;;;;5054315;28;20071;-67
2023/08/29 01:20:12;;;;;;;3.83;2.90;;;17.10;99.90;;;;;;5054386;28;20389;-67
2023/08/29 01:22:53;;;;;;;4.32;3.30;;;17.10;99.90;;;;;;5054268;28;20401;-67
2023/08/29 01:25:56;;;;;;;5.72;3.20;;;17.20;99.90;;;;;;5054519;28;20029;-67
2023/08/29 01:28:23;;;;;;;4.95;3.42;;;17.20;99.90;;;;;;5054243;28;20531;-67
2023/08/29 01:30:49;;;;;;;6.05;3.10;;;17.30;99.90;;;;;;5054049;28;20036;-67
2023/08/29 01:33:15;;;;;;;3.60;3.30;;;17.30;99.90;;;;;;5054618;28;20458;-67
2023/08/29 01:35:45;;;;;;;3.80;3.50;;;17.30;99.90;;;;;;5053546;28;20432;-67
2023/08/29 01:38:11;;;;;;;6.05;3.88;;;17.30;99.90;;;;;;5054162;28;20029;-67
2023/08/29 01:40:37;;;;;;;3.78;3.42;;;17.20;99.90;;;;;;5053874;28;20025;-68
2023/08/29 01:43:03;;;;;;;4.32;3.42;;;17.20;99.90;;;;;;5054212;28;20021;-67
2023/08/29 01:45:28;;;;;;;3.65;3.30;;;17.20;99.90;;;;;;5054244;28;20137;-67
2023/08/29 01:47:54;;;;;;;4.85;3.83;;;17.20;99.90;;;;;;5053962;28;20025;-67
2023/08/29 01:50:20;;;;;;;4.13;3.72;;;17.20;99.90;;;;;;5054031;28;20029;-67
2023/08/29 01:52:47;;;;;;;3.45;3.15;;;17.10;99.90;;;;;;5053610;28;20037;-67
2023/08/29 01:55:13;;;;;;;4.43;3.22;;;17.10;99.90;;;;;;5053710;28;20452;-67
2023/08/29 01:57:39;;;;;;;4.65;3.40;;;17.10;99.90;;;;;;5053504;28;20112;-67
2023/08/29 02:00:05;;;;;;;4.07;3.45;;;17.00;99.90;;;;;;5053918;28;20060;-67
2023/08/29 02:02:31;;;;;;;4.40;3.30;;;17.00;99.90;;;;;;5052376;28;20036;-68
2023/08/29 02:04:56;;;;;;;5.60;3.05;;;17.00;99.90;;;;;;5033415;28;20552;-67
2023/08/29 02:07:22;;;;;;;6.82;2.83;;;16.90;99.90;;;;;;5033789;28;20032;-67
2023/08/29 02:09:47;;;;;;;5.68;3.35;;;16.90;99.90;;;;;;5033316;28;20033;-67
2023/08/29 02:12:13;;;;;;;3.38;2.75;;;16.80;99.90;;;;;;5033070;28;20057;-67
2023/08/29 02:14:39;;;;;;;3.03;2.22;;;16.80;99.90;;;;;;5033205;28;20032;-68
2023/08/29 02:17:04;;;;;;;2.90;2.60;;;16.80;99.90;;;;;;5016019;28;20088;-67
2023/08/29 02:19:30;;;;;;;2.55;2.35;;;16.80;99.90;;;;;;5033560;28;20036;-67
2023/08/29 02:21:56;;;;;;;2.55;2.35;;;16.70;99.90;;;;;;5033237;28;20025;-67
2023/08/29 02:24:22;;;;;;;2.80;2.50;;;16.60;99.90;;;;;;5033523;28;20032;-67
2023/08/29 02:26:47;;;;;;;2.90;2.17;;;16.60;99.90;;;;;;5032770;28;20034;-67
2023/08/29 02:29:13;;;;;;;2.42;2.20;;;16.60;99.90;;;;;;5045019;28;20033;-67
2023/08/29 02:31:38;;;;;;;2.78;2.40;;;16.70;99.90;;;;;;5051623;28;20097;-68
2023/08/29 02:34:04;;;;;;;3.30;2.33;;;16.70;99.90;;;;;;5035335;28;20029;-67
2023/08/29 02:36:29;;;;;;;3.42;1.88;;;16.70;99.90;;;;;;5035574;28;20026;-67
2023/08/29 02:38:55;;;;;;;2.70;1.92;;;16.70;99.90;;;;;;5032572;28;20029;-67
2023/08/29 02:41:21;;;;;;;2.85;2.20;;;16.70;99.90;;;;;;5033191;28;20120;-67
2023/08/29 02:43:46;;;;;;;2.58;2.20;;;16.70;99.90;;;;;;5032557;28;20427;-67
2023/08/29 02:46:12;;;;;;;3.95;2.08;;;16.80;99.90;;;;;;5033470;28;20034;-67
2023/08/29 02:48:37;;;;;;;3.45;2.10;;;16.70;99.90;;;;;;5015005;28;20021;-68
2023/08/29 02:51:03;;;;;;;2.40;2.00;;;16.80;99.90;;;;;;5033208;28;20022;-67
2023/08/29 02:53:29;;;;;;;3.63;1.80;;;16.80;99.90;;;;;;5033274;28;20033;-67
2023/08/29 02:55:56;;;;;;;3.58;2.13;;;16.90;99.90;;;;;;5034489;28;20056;-67
2023/08/29 02:58:22;;;;;;;2.97;1.88;;;16.90;99.90;;;;;;5032994;28;20030;-67
2023/08/29 03:00:55;;;;;;;2.45;1.88;;;16.90;99.90;;;;;;5032527;28;20086;-67
2023/08/29 03:03:22;;;;;;;3.17;2.00;;;16.90;99.90;;;;;;5032884;28;20068;-67
2023/08/29 03:05:57;;;;;;;2.55;2.15;;;16.90;99.90;;;;;;5032395;28;20040;-67
2023/08/29 03:08:23;;;;;;;3.97;2.20;;;16.90;99.90;;;;;;5033992;28;20048;-67
2023/08/29 03:10:50;;;;;;;4.43;2.17;;;16.90;99.90;;;;;;5032438;28;20025;-68
2023/08/29 03:13:20;;;;;;;2.72;1.92;;;16.90;99.90;;;;;;5032920;28;20056;-67
2023/08/29 03:15:46;;;;;;;2.28;2.08;;;16.90;99.90;;;;;;5032327;28;20029;-66
2023/08/29 03:18:12;;;;;;;4.80;2.08;;;16.90;99.90;;;;;;5032479;28;20045;-66
2023/08/29 03:20:41;;;;;;;2.97;2.22;;;16.90;99.90;;;;;;5032647;28;20462;-66
2023/08/29 03:23:07;;;;;;;7.43;2.33;;;16.90;99.90;;;;;;5040070;28;20486;-68
2023/08/29 03:25:33;;;;;;;2.95;1.85;;;16.90;99.90;;;;;;5056136;28;20036;-67
2023/08/29 03:27:58;;;;;;;4.65;2.28;;;16.90;99.90;;;;;;5056032;28;20026;-68
2023/08/29 03:30:27;;;;;;;2.88;2.30;;;16.90;99.90;;;;;;5056763;28;20104;-68
2023/08/29 03:32:53;;;;;;;2.75;2.30;;;16.90;99.90;;;;;;5052934;28;20547;-68
2023/08/29 03:35:19;;;;;;;3.70;2.28;;;16.90;99.90;;;;;;5045495;28;20057;-66
2023/08/29 03:37:46;;;;;;;3.28;2.28;;;16.80;99.90;;;;;;5036199;28;20033;-66
2023/08/29 03:40:14;;;;;;;2.25;2.03;;;16.80;99.90;;;;;;5036575;28;20431;-67
2023/08/29 03:42:40;;;;;;;3.00;2.20;;;16.80;99.90;;;;;;5036570;28;20095;-67
2023/08/29 03:45:07;;;;;;;3.78;2.20;;;16.90;99.90;;;;;;5036078;28;20029;-67
2023/08/29 03:47:34;;;;;;;2.47;1.98;;;16.90;99.90;;;;;;5036158;28;20032;-67
2023/08/29 03:50:00;;;;;;;2.83;2.15;;;16.80;99.90;;;;;;5035998;28;20026;-67
2023/08/29 03:52:26;;;;;;;3.92;2.53;;;16.80;99.90;;;;;;5036585;28;20108;-66
2023/08/29 03:54:53;;;;;;;3.53;2.45;;;16.80;99.90;;;;;;5036008;28;20049;-67
2023/08/29 03:57:19;;;;;;;4.32;2.13;;;16.80;99.90;;;;;;5036141;28;20043;-67
2023/08/29 03:59:45;;;;;;;2.25;2.05;;;16.80;99.90;;;;;;5035722;28;20037;-68
2023/08/29 04:02:11;;;;;;;2.75;2.22;;;16.80;99.90;;;;;;5036109;28;20021;-67
2023/08/29 04:04:37;;;;;;;3.50;2.03;;;16.70;99.90;;;;;;5036062;28;20029;-67
2023/08/29 04:07:04;;;;;;;2.83;1.95;;;16.70;99.90;;;;;;5035614;28;20375;-67
2023/08/29 04:09:30;;;;;;;4.45;2.40;;;16.70;99.90;;;;;;5036127;28;20021;-67
2023/08/29 04:11:56;;;;;;;2.75;2.00;;;16.70;99.90;;;;;;5038081;28;20369;-67
2023/08/29 04:14:21;;;;;;;3.50;2.13;;;16.70;99.90;;;;;;5056319;28;20021;-67
2023/08/29 04:16:48;;;;;;;3.08;2.20;;;16.70;99.90;;;;;;5037734;28;20025;-67
2023/08/29 04:19:14;;;;;;;4.57;2.20;;;16.70;99.90;;;;;;5055850;28;20428;-67
2023/08/29 04:21:40;;;;;;;2.08;1.88;;;16.70;99.90;;;;;;5055748;28;20040;-67
2023/08/29 04:24:06;;;;;;;5.40;2.10;;;16.70;99.90;;;;;;5055526;28;20079;-67
2023/08/29 04:26:32;;;;;;;3.38;2.08;;;16.70;99.90;;;;;;5055646;28;20036;-67
2023/08/29 04:28:58;;;;;;;4.55;2.22;;;16.70;99.90;;;;;;5055269;28;20021;-67
2023/08/29 04:31:24;;;;;;;3.60;2.00;;;16.70;99.90;;;;;;5052210;28;20032;-67
2023/08/29 04:33:50;;;;;;;3.33;2.20;;;16.70;99.90;;;;;;5054659;28;20025;-68
2023/08/29 04:36:16;;;;;;;2.40;2.20;;;16.70;99.90;;;;;;5054223;28;20029;-67
2023/08/29 04:38:45;;;;;;;2.60;2.00;;;16.70;99.90;;;;;;5055077;28;20029;-67
2023/08/29 04:41:11;;;;;;;4.05;2.55;;;16.70;99.90;;;;;;5054826;28;20029;-67
2023/08/29 04:43:38;;;;;;;3.78;2.30;;;16.70;99.90;;;;;;5055303;28;20028;-67
2023/08/29 04:46:03;;;;;;;4.20;2.45;;;16.70;99.90;;;;;;5051356;28;20029;-67
2023/08/29 04:48:29;;;;;;;6.70;2.30;;;16.70;99.90;;;;;;5055197;28;20029;-67
2023/08/29 04:50:55;;;;;;;6.20;2.40;;;16.70;99.90;;;;;;5054620;28;20523;-67
2023/08/29 04:53:21;;;;;;;3.97;2.10;;;16.60;99.90;;;;;;5037277;28;20037;-67
2023/08/29 04:55:47;;;;;;;3.20;2.25;;;16.70;99.90;;;;;;5053867;28;20049;-67
2023/08/29 04:58:12;;;;;;;2.80;2.42;;;16.70;99.90;;;;;;5035090;28;20083;-66
2023/08/29 05:00:38;;;;;;;4.20;2.03;;;16.70;99.90;;;;;;5054729;28;20023;-67
2023/08/29 05:03:04;;;;;;;3.63;1.88;;;16.60;99.90;;;;;;5054198;28;20037;-68
2023/08/29 05:05:30;;;;;;;3.33;2.15;;;16.70;99.90;;;;;;5054822;28;20450;-67
2023/08/29 05:07:56;;;;;;;3.35;2.10;;;16.70;99.90;;;;;;5054417;28;20021;-67
2023/08/29 05:10:22;;;;;;;6.40;2.78;;;16.70;99.90;;;;;;5054830;28;20078;-67
2023/08/29 05:12:48;;;;;;;3.22;2.28;;;16.70;99.90;;;;;;5054503;28;20033;-67
2023/08/29 05:15:16;;;;;;;3.42;2.60;;;16.80;99.90;;;;;;5054344;28;20025;-67
2023/08/29 05:17:42;;;;;;;2.90;2.45;;;16.80;99.90;;;;;;5054134;28;20029;-67
2023/08/29 05:20:09;;;;;;;3.65;2.38;;;16.80;99.90;;;;;;5053824;28;20488;-67
2023/08/29 05:22:35;;;;;;;6.43;2.30;;;16.80;99.90;;;;;;5054423;28;20029;-67
2023/08/29 05:25:01;;;;;;;7.82;2.70;;;16.70;99.90;;;;;;5053902;28;20166;-66
2023/08/29 05:27:26;;;;;;;3.15;2.13;;;16.80;99.90;;;;;;5054064;28;20036;-67
2023/08/29 05:29:53;;;;;;;3.90;2.20;;;16.80;99.90;;;;;;5053817;28;20040;-69
2023/08/29 05:32:18;;;;;;;6.65;2.40;;;16.80;99.90;;;;;;5054212;28;20029;-67
2023/08/29 05:34:44;;;;;;;4.00;2.00;;;16.80;99.90;;;;;;5054297;28;20025;-67
2023/08/29 05:37:09;;;;;;;2.47;1.73;;;16.80;99.90;;;;;;5035906;28;20102;-66
2023/08/29 05:39:35;;;;;;;3.50;1.85;;;16.80;99.90;;;;;;5054144;28;20033;-67
2023/08/29 05:42:01;;;;;;;2.72;2.10;;;16.80;99.90;;;;;;5053737;28;20021;-68
2023/08/29 05:44:26;;;;;;;4.90;2.13;;;16.80;99.90;;;;;;5054249;28;20105;-68
2023/08/29 05:46:52;;;;;;;3.92;2.15;;;16.80;99.90;;;;;;5053668;28;20039;-68
2023/08/29 05:49:17;;;;;;;5.55;2.40;;;16.80;99.90;;;;;;5054100;28;20037;-68
2023/08/29 05:51:43;;;;;;;4.82;2.40;;;16.80;99.90;;;;;;5054053;28;20032;-68
2023/08/29 05:54:09;;;;;;;2.90;2.10;;;16.90;99.90;;;;;;5053549;28;20032;-68
2023/08/29 05:56:37;;;;;;;3.08;1.70;;;16.90;99.90;;;;;;5053827;28;20021;-68
2023/08/29 05:59:02;;;;;;;4.30;1.90;;;16.90;99.90;;;;;;5053058;28;20450;-68
2023/08/29 06:01:28;;;;;;;2.40;2.20;;;16.90;99.90;;;;;;5053891;28;20048;-68
2023/08/29 06:03:53;;;;;;;3.15;2.20;;;16.90;99.90;;;;;;5053598;28;20100;-70
2023/08/29 06:06:19;;;;;;;1.95;1.67;;;16.90;99.90;;;;;;5053914;28;20101;-68
2023/08/29 06:08:46;;;;;;;7.18;1.95;;;16.90;99.90;;;;;;5053477;28;20075;-67
2023/08/29 06:11:12;;;;;;;3.63;2.05;;;16.90;99.90;;;;;;5053080;28;20025;-67
2023/08/29 06:13:38;;;;;;;3.05;1.88;;;16.90;99.90;;;;;;5053224;28;20477;-67
2023/08/29 06:16:04;;;;;;;3.28;1.90;;;16.90;99.90;;;;;;5052736;28;20029;-67
2023/08/29 06:18:32;;;;;;;3.22;1.80;;;16.80;99.90;;;;;;5053380;28;20037;-67
2023/08/29 06:20:58;;;;;;;2.33;1.98;;;16.80;99.90;;;;;;5035998;28;20033;-67
2023/08/29 06:23:24;;;;;;;3.92;2.08;;;16.80;99.90;;;;;;5033437;28;20516;-66
2023/08/29 06:25:50;;;;;;;2.58;1.77;;;16.70;99.90;;;;;;5033346;28;20028;-67
2023/08/29 06:28:15;;;;;;;4.43;1.92;;;16.70;99.90;;;;;;5032857;28;20036;-67
2023/08/29 06:30:41;;;;;;;4.35;2.13;;;16.60;99.90;;;;;;5033547;28;20037;-68
2023/08/29 06:33:06;;;;;;;3.38;1.70;;;16.60;99.90;;;;;;5032825;28;20448;-68
2023/08/29 06:35:39;;;;;;;2.30;1.90;;;16.70;99.90;;;;;;5033239;28;20041;-67
2023/08/29 06:38:05;;;;;;;3.28;1.75;;;16.60;99.90;;;;;;5034893;28;20116;-67
2023/08/29 06:40:30;;;;;;;3.50;2.05;;;16.60;99.90;;;;;;5033240;28;20463;-67
2023/08/29 06:42:56;;;;;;;3.95;1.95;;;16.60;99.90;;;;;;5033176;28;20040;-68
2023/08/29 06:45:22;;;;;;;2.65;2.00;;;16.60;99.90;;;;;;5033231;28;20057;-68
2023/08/29 06:47:48;;;;;;;4.07;2.00;;;16.50;99.90;;;;;;5032998;28;20038;-68
2023/08/29 06:50:16;;;;;;;2.67;1.90;;;16.50;99.90;;;;;;5038690;28;20100;-68
2023/08/29 06:52:41;;;;;;;2.50;1.92;;;16.50;99.90;;;;;;5052533;28;20029;-68
2023/08/29 06:55:09;;;;;;;2.80;1.85;;;16.50;99.90;;;;;;5052027;28;20076;-68
2023/08/29 06:57:35;;;;;;;2.10;1.75;;;16.50;99.90;;;;;;5052667;28;20039;-68
2023/08/29 07:00:01;;;;;;;4.72;2.10;;;16.60;99.90;;;;;;5051858;28;20025;-68
2023/08/29 07:02:26;;;;;;;4.72;1.77;;;16.60;99.90;;;;;;5052800;28;20154;-68
2023/08/29 07:04:52;;;;;;;2.00;1.80;;;16.70;99.90;;;;;;5052577;28;20063;-68
2023/08/29 07:07:18;;;;;;;2.20;1.60;;;16.70;99.90;;;;;;5052273;28;20041;-68
2023/08/29 07:09:43;;;;;;;3.38;1.83;;;16.70;99.90;;;;;;5052672;28;20091;-68
2023/08/29 07:12:09;;;;;;;1.73;1.63;;;16.70;99.90;;;;;;5052357;28;20472;-68
2023/08/29 07:14:35;;;;;;;4.97;1.63;;;16.70;99.90;;;;;;5052296;28;20025;-68
2023/08/29 07:17:01;;;;;;;3.70;2.00;;;16.80;99.90;;;;;;5052157;28;20040;-68
2023/08/29 07:19:28;;;;;;;3.70;1.65;;;16.70;99.90;;;;;;5052187;28;20033;-68
2023/08/29 07:21:54;;;;;;;1.85;1.30;;;16.80;99.90;;;;;;5052478;28;20021;-68
2023/08/29 07:24:19;;;;;;;2.85;1.88;;;16.80;99.90;;;;;;5052404;28;20119;-67
2023/08/29 07:26:45;;;;;;;3.28;1.50;;;16.80;99.90;;;;;;5052816;28;20029;-68
2023/08/29 07:29:11;;;;;;;2.10;1.55;;;16.80;99.90;;;;;;5052098;28;20025;-68
2023/08/29 07:31:36;;;;;;;1.33;1.20;;;16.80;99.90;;;;;;5052446;28;20458;-68
2023/08/29 07:34:02;;;;;;;3.92;1.10;;;16.90;99.90;;;;;;5052052;28;20031;-69
2023/08/29 07:36:27;;;;;;;1.42;1.17;;;16.90;99.90;;;;;;5052146;28;20033;-68
2023/08/29 07:38:53;;;;;;;3.15;1.00;;;16.90;99.90;;;;;;5052407;28;20035;-68
2023/08/29 07:41:19;;;;;;;2.28;0.93;;;16.90;99.90;;;;;;5051914;28;20041;-68
2023/08/29 07:43:44;;;;;;;2.70;1.20;;;17.00;99.90;;;;;;5052538;28;20029;-68
2023/08/29 07:46:10;;;;;;;3.92;2.25;;;17.00;99.90;;;;;;5051781;28;20115;-67
2023/08/29 07:48:35;;;;;;;1.70;1.30;;;17.10;99.90;;;;;;5051987;28;20028;-67
2023/08/29 07:51:01;;;;;;;3.05;0.98;;;17.10;99.90;;;;;;5052236;28;20048;-68
2023/08/29 07:53:27;;;;;;;1.17;0.80;;;17.10;99.90;;;;;;5052383;28;20025;-68
2023/08/29 07:55:53;;;;;;;2.22;1.20;;;17.10;99.90;;;;;;5052197;28;20087;-68
2023/08/29 07:58:18;;;;;;;0.93;0.82;;;17.10;99.90;;;;;;5052246;28;20457;-66
2023/08/29 08:00:44;;;;;;;3.88;1.20;;;17.00;99.90;;;;;;5052381;28;20525;-67
2023/08/29 08:03:10;;;;;;;1.10;1.00;;;17.10;99.90;;;;;;5051831;28;20026;-68
2023/08/29 08:05:35;;;;;;;2.55;1.38;;;17.10;99.90;;;;;;5051968;28;20025;-68
2023/08/29 08:08:01;;;;;;;1.10;1.00;;;17.10;99.90;;;;;;5052336;28;20037;-67
2023/08/29 08:10:27;;;;;;;2.67;1.70;;;17.20;99.90;;;;;;5053076;28;20021;-67
2023/08/29 08:12:52;;;;;;;2.40;1.70;;;17.20;99.90;;;;;;5055660;28;20033;-68
2023/08/29 08:15:19;;;;;;;0.95;0.70;;;17.20;99.90;;;;;;5053610;28;20078;-67
2023/08/29 08:17:46;;;;;;;3.58;1.08;;;17.20;99.90;;;;;;5035688;28;20026;-67
2023/08/29 08:20:12;;;;;;;1.10;0.90;;;17.20;99.90;;;;;;5035417;28;20033;-67
2023/08/29 08:22:39;;;;;;;0.98;0.80;;;17.20;99.90;;;;;;5035711;28;20108;-68
2023/08/29 08:25:05;;;;;;;1.98;0.90;;;17.20;99.90;;;;;;5035261;28;20033;-69
2023/08/29 08:27:31;;;;;;;2.17;0.88;;;17.20;99.90;;;;;;5035330;28;20056;-68
2023/08/29 08:29:57;;;;;;;1.00;0.90;;;17.20;99.90;;;;;;5035562;28;20478;-67
2023/08/29 08:32:23;;;;;;;2.45;0.80;;;17.20;99.90;;;;;;5035150;28;20140;-67
2023/08/29 08:34:48;;;;;;;1.65;0.85;;;17.20;99.90;;;;;;5035372;28;20021;-67
2023/08/29 08:37:14;;;;;;;1.40;0.70;;;17.20;99.90;;;;;;5034996;28;20355;-67
2023/08/29 08:39:40;;;;;;;4.03;0.85;;;17.20;99.90;;;;;;5035637;28;20026;-68
2023/08/29 08:42:08;;;;;;;1.02;0.68;;;17.30;99.90;;;;;;5017351;28;20028;-68
2023/08/29 08:44:35;;;;;;;1.58;0.70;;;17.30;99.90;;;;;;5035280;28;20027;-68
2023/08/29 08:47:00;;;;;;;1.17;0.60;;;17.20;99.90;;;;;;5034992;28;20025;-67
2023/08/29 08:49:26;;;;;;;1.13;0.50;;;17.20;99.90;;;;;;5037336;28;20041;-67
2023/08/29 08:51:53;;;;;;;2.97;0.90;;;17.10;99.90;;;;;;5034815;28;20113;-67
2023/08/29 08:54:19;;;;;;;2.58;0.90;;;17.10;99.90;;;;;;5034544;28;20049;-67
2023/08/29 08:56:46;;;;;;;2.78;0.77;;;17.10;99.90;;;;;;5035060;28;20033;-67
2023/08/29 08:59:12;;;;;;;0.95;0.50;;;17.00;99.90;;;;;;5034653;28;20025;-66
2023/08/29 09:01:38;;;;;;;1.30;0.70;;;17.00;99.90;;;;;;5034763;28;20036;-67
2023/08/29 09:04:04;;;;;;;1.17;0.50;;;17.00;99.90;;;;;;5017214;28;20447;-67
2023/08/29 09:06:30;;;;;;;3.63;0.60;;;17.00;99.90;;;;;;5034303;28;20457;-68
2023/08/29 09:09:18;;;;;;;3.10;0.80;;;17.10;99.90;;;;;;5034444;28;20106;-67
2023/08/29 09:11:50;;;;;;;0.70;0.60;;;17.00;99.90;;;;;;5034478;28;20083;-67
2023/08/29 09:14:15;;;;;;;4.43;1.00;;;17.00;99.90;;;;;;5034143;28;20061;-68
2023/08/29 09:16:42;;;;;;;2.10;0.80;;;17.00;99.90;;;;;;5034573;28;20403;-67
2023/08/29 09:19:08;;;;;;;4.55;1.10;;;17.00;99.90;;;;;;5034410;28;20041;-70
2023/08/29 09:21:35;;;;;;;2.63;0.60;;;17.00;99.90;;;;;;5034013;28;20033;-67
2023/08/29 09:24:01;;;;;;;2.28;0.80;;;16.90;99.90;;;;;;5034493;28;20033;-67
2023/08/29 09:26:32;;;;;;;1.63;0.63;;;16.90;99.90;;;;;;5034183;28;20036;-68
2023/08/29 09:28:58;;;;;;;1.98;0.57;;;16.90;99.90;;;;;;5034612;28;20034;-67
2023/08/29 09:31:24;;;;;;;0.68;0.52;;;16.90;99.90;;;;;;5034043;28;20033;-67
2023/08/29 09:33:50;;;;;;;1.23;0.70;;;16.90;99.90;;;;;;5034205;28;20497;-68
2023/08/29 09:36:16;;;;;;;0.90;0.43;;;16.90;99.90;;;;;;5034261;28;20036;-67
2023/08/29 09:38:42;;;;;;;1.30;0.60;;;17.00;99.90;;;;;;5034434;28;20040;-67
2023/08/29 09:41:15;;;;;;;0.50;0.50;;;17.00;99.90;;;;;;5034303;28;20113;-67
2023/08/29 09:43:48;;;;;;;0.75;0.68;;;17.00;99.90;;;;;;5034222;28;20026;-68
2023/08/29 09:46:19;;;;;;;2.35;0.70;;;17.00;99.90;;;;;;5033651;28;20033;-68
2023/08/29 09:48:53;;;;;;;;;;;17.00;99.90;;;;;;5016825;28;20450;-67
2023/08/29 09:51:21;;;;;;;0.70;0.60;;;17.00;99.90;;;;;;5033686;28;19905;-68
2023/08/29 09:53:47;;;;;;;2.08;1.00;;;17.00;99.90;;;;;;5033962;28;20057;-67
2023/08/29 09:56:14;;;;;;;1.73;0.90;;;16.90;99.90;;;;;;5033835;28;20121;-67
2023/08/29 09:58:40;;;;;;;1.90;0.60;;;16.90;99.90;;;;;;5034232;28;20056;-67
2023/08/29 10:01:08;;;;;;;3.67;0.50;;;16.90;99.90;;;;;;5033826;28;20075;-67
2023/08/29 10:03:35;;;;;;;1.75;0.70;;;17.00;99.90;;;;;;5033312;28;20029;-67
2023/08/29 10:06:05;;;;;;;1.27;0.60;;;17.00;99.90;;;;;;5033559;28;20079;-67
2023/08/29 10:08:41;;;;;;;1.17;0.50;;;17.00;99.90;;;;;;5033151;28;20021;-68
2023/08/29 10:11:07;;;;;;;1.42;0.52;;;16.90;99.90;;;;;;5041852;28;20020;-67
2023/08/29 10:13:37;;;;;;;0.75;0.50;;;16.90;99.90;;;;;;5053356;28;20040;-67
2023/08/29 10:16:04;;;;;;;0.75;0.68;;;16.90;99.90;;;;;;5053494;28;20028;-67
2023/08/29 10:18:30;;;;;;;0.50;0.47;;;16.90;99.90;;;;;;5052994;28;20029;-67
2023/08/29 10:20:59;;;;;;;1.23;0.70;;;16.90;99.90;;;;;;5053430;28;20025;-67
2023/08/29 10:23:26;;;;;;;1.13;0.50;;;17.00;99.90;;;;;;5053065;28;20035;-67
2023/08/29 10:25:52;;;;;;;0.90;0.60;;;17.00;99.90;;;;;;5035165;28;20036;-67
2023/08/29 10:28:18;;;;;;;0.70;0.70;;;17.00;99.90;;;;;;5053052;28;20025;-69
2023/08/29 10:30:51;;;;;;;0.65;0.63;;;17.00;99.90;;;;;;5053218;28;20472;-68
2023/08/29 10:33:18;;;;;;;0.95;0.55;;;16.90;99.90;;;;;;5052039;28;20498;-68
2023/08/29 10:35:47;;;;;;;0.50;0.50;;;16.90;99.90;;;;;;5049533;28;20086;-68
2023/08/29 10:38:14;;;;;;;0.98;0.60;;;16.90;99.90;;;;;;5032734;28;20040;-68
2023/08/29 10:40:40;;;;;;;0.85;0.63;;;16.90;99.90;;;;;;5033433;28;20029;-68
2023/08/29 10:43:20;;;;;;;1.73;0.60;;;16.90;99.90;;;;;;5033018;28;20048;-68
2023/08/29 10:45:51;;;;;;;1.35;0.55;;;16.90;99.90;;;;;;5033127;28;20492;-68
2023/08/29 10:48:43;;;;;;;2.25;0.50;;;16.90;99.90;;;;;;5032892;28;20407;-68
2023/08/29 10:51:09;;;;;;;0.45;0.38;;;16.80;99.90;;;;;;5039995;28;20075;-68
2023/08/29 10:53:42;;;;;;;1.45;0.63;;;16.90;99.90;;;;;;5052119;28;20517;-68
2023/08/29 10:56:08;;;;;;;0.98;0.70;;;17.00;99.90;;;;;;5052089;28;20107;-68
2023/08/29 10:58:39;;;;;;;0.77;0.77;;;17.00;99.90;;;;;;5052286;28;20033;-68
2023/08/29 11:01:27;;;;;;;1.08;0.57;;;17.00;99.90;;;;;;5052508;28;20029;-68
2023/08/29 11:03:53;;;;;;;0.52;0.50;;;17.00;99.90;;;;;;5052600;28;20036;-68
2023/08/29 11:06:21;;;;;;;1.27;0.52;;;17.10;99.90;;;;;;5052174;28;20108;-68
2023/08/29 11:08:47;;;;;;;1.05;0.43;;;17.10;99.90;;;;;;5052445;28;20039;-67
2023/08/29 11:11:18;;;;;;;1.73;0.70;;;17.10;99.90;;;;;;5052399;28;20025;-68
2023/08/29 11:14:06;;;;;;;1.25;0.70;;;17.10;99.90;;;;;;5052708;28;20100;-67
2023/08/29 11:16:36;;;;;;;1.38;0.60;;;17.20;99.90;;;;;;5051770;28;20473;-67
2023/08/29 11:19:14;;;;;;;3.63;0.70;;;17.20;99.90;;;;;;5052448;28;20119;-67
2023/08/29 11:21:43;;;;;;;1.25;1.00;;;17.20;99.90;;;;;;5051928;28;20052;-67
2023/08/29 11:24:10;;;;;;;3.00;0.90;;;17.30;99.90;;;;;;5052319;28;20033;-67
2023/08/29 11:26:39;;;;;;;8.15;0.88;;;17.20;99.90;;;;;;5051889;28;20040;-67
2023/08/29 11:29:08;;;;;;;1.15;0.68;;;17.20;99.90;;;;;;5052215;28;20024;-67
2023/08/29 11:31:44;;;;;;;2.67;0.90;;;17.30;99.90;;;;;;5051993;28;20025;-67
2023/08/29 11:34:13;;;;;;;1.13;0.90;;;17.30;99.90;;;;;;5052477;28;20057;-67
2023/08/29 11:36:40;;;;;;;2.65;1.00;;;17.20;99.90;;;;;;5051736;28;20061;-67
2023/08/29 11:39:07;;;;;;;0.85;0.65;;;17.20;99.90;;;;;;5052336;28;20032;-67
2023/08/29 11:41:34;;;;;;;0.63;0.63;;;17.20;99.90;;;;;;5051507;28;20492;-67
2023/08/29 11:44:00;;;;;;;3.08;0.93;;;17.10;99.90;;;;;;5052300;28;20025;-67
2023/08/29 11:46:33;;;;;;;1.08;0.70;;;17.10;99.90;;;;;;5055173;28;20056;-68
2023/08/29 11:48:59;;;;;;;0.80;0.80;;;17.00;99.90;;;;;;5056254;28;20481;-68
2023/08/29 11:51:25;;;;;;;1.15;0.70;;;17.00;99.90;;;;;;5055673;28;20466;-67
2023/08/29 11:53:51;;;;;;;0.90;0.60;;;17.00;99.90;;;;;;5055878;28;20036;-68
2023/08/29 11:56:17;;;;;;;1.27;0.88;;;17.00;99.90;;;;;;5056053;28;20092;-68
2023/08/29 11:58:42;;;;;;;0.98;0.63;;;17.00;99.90;;;;;;5055490;28;20490;-68
2023/08/29 12:01:08;;;;;;;2.08;0.68;;;17.00;99.90;;;;;;5056018;28;20465;-68
2023/08/29 12:03:36;;;;;;;2.90;0.95;;;17.00;99.90;;;;;;5055537;28;20021;-67
2023/08/29 12:06:05;;;;;;;0.95;0.50;;;17.00;99.90;;;;;;5055725;28;20032;-68
2023/08/29 12:08:41;;;;;;;1.00;0.90;;;17.00;99.90;;;;;;5055556;28;20032;-68
2023/08/29 12:11:16;;;;;;;2.38;1.00;;;16.90;99.90;;;;;;5055869;28;20123;-68
2023/08/29 12:14:01;;;;;;;1.13;0.70;;;16.90;99.90;;;;;;5055332;28;20087;-67
2023/08/29 12:16:26;;;;;;;1.73;0.73;;;16.90;99.90;;;;;;5052616;28;20037;-68
2023/08/29 12:19:04;;;;;;;0.70;0.63;;;16.90;99.90;;;;;;5035818;28;20036;-67
2023/08/29 12:21:30;;;;;;;0.70;0.60;;;16.90;99.90;;;;;;5035284;28;20029;-67
2023/08/29 12:24:11;;;;;;;0.77;0.65;;;16.90;99.90;;;;;;5035348;28;20426;-67
2023/08/29 12:26:37;;;;;;;3.65;0.80;;;17.00;99.90;;;;;;5035221;28;20030;-67
2023/08/29 12:29:03;;;;;;;1.08;0.80;;;17.00;99.90;;;;;;5035618;28;20107;-67
2023/08/29 12:31:28;;;;;;;1.73;0.80;;;16.90;99.90;;;;;;5037082;28;20428;-68
2023/08/29 12:33:54;;;;;;;0.88;0.60;;;17.00;99.90;;;;;;5035425;28;20030;-67
2023/08/29 12:36:19;;;;;;;3.88;0.70;;;16.90;99.90;;;;;;5035312;28;20065;-67
2023/08/29 12:38:45;;;;;;;1.85;0.68;;;16.90;99.90;;;;;;5034751;28;20079;-67
2023/08/29 12:41:12;;;;;;;1.52;0.63;;;16.90;99.90;;;;;;5035422;28;20053;-67
2023/08/29 12:43:40;;;;;;;8.45;1.02;;;16.90;99.90;;;;;;5052771;28;20079;-67
2023/08/29 12:46:06;;;;;;;1.45;0.77;;;16.90;99.90;;;;;;5055239;28;20109;-67
2023/08/29 12:48:31;;;;;;;1.17;0.63;;;16.90;99.90;;;;;;5054430;28;20108;-67